Portland, Oregon
Traffic Map
Current Weather Conditions
Portland, Oregon
Broken Clouds
Broken Clouds
44°
Feels Like: 42°
Wind Chill: 42° Ceiling: 25000
Heat Index: 44° Visibility: 10mi
Dew Point: 40° Wind: 5mph
Humidity: 85% Direction: 140° (SE)
Pressure: 29.86in Gusts: 0mph
Raw Report DataKPDX 191253Z 14004KT 10SM SCT160 BKN250 07/04 A2986 RMK AO2 SLP110 T00670044
Traffic Incident Summary
Active as of:
Severity:
Category:
InformationThere was an issue retrieving the traffic information for this location. Please try a different location or try again shortly.
Advertisements
At Last! Intellicast now available for iPhone and Android